createdAt,value
2023-11-12T00:03:02.664Z,100559.22
2023-11-12T00:06:07.478Z,100556.03
2023-11-12T00:09:10.648Z,100554.88
2023-11-12T00:12:13.317Z,100549.78
2023-11-12T00:15:16.001Z,100555.78
2023-11-12T00:18:18.647Z,100547.94
2023-11-12T00:21:22.593Z,100555.91
2023-11-12T00:24:25.213Z,100551.16
2023-11-12T00:27:28.217Z,100554.31
2023-11-12T00:30:30.784Z,100555.44
2023-11-12T00:33:33.573Z,100548.63
2023-11-12T00:36:39.686Z,100541.44
2023-11-12T00:39:42.950Z,100539.81
2023-11-12T00:42:45.749Z,100542.97
2023-11-12T00:45:48.411Z,100534.28
2023-11-12T00:48:51.031Z,100543.78
2023-11-12T00:51:55.022Z,100539.72
2023-11-12T00:54:57.594Z,100545.97
2023-11-12T00:58:00.327Z,100537.97
2023-11-12T01:01:03.195Z,100554.94
2023-11-12T01:04:06.602Z,100543.28
2023-11-12T01:07:10.544Z,100545.47
2023-11-12T01:10:13.291Z,100534.22
2023-11-12T01:13:16.333Z,100536.25
2023-11-12T01:16:19.057Z,100531.28
2023-11-12T01:19:21.720Z,100536.66
2023-11-12T01:22:25.708Z,100531.50
2023-11-12T01:25:28.408Z,100532.63
2023-11-12T01:28:32.931Z,100526.28
2023-11-12T01:31:35.606Z,100528.91
2023-11-12T01:34:38.201Z,100527.66
2023-11-12T01:37:42.104Z,100529.59
2023-11-12T01:40:44.680Z,100530.75
2023-11-12T01:43:47.277Z,100524.41
2023-11-12T01:46:50.100Z,100526.34
2023-11-12T01:49:53.598Z,100521.19
2023-11-12T01:52:57.591Z,100530.63
2023-11-12T01:56:00.226Z,100533.41
2023-11-12T01:59:02.945Z,100528.31
2023-11-12T02:02:06.403Z,100527.50
2023-11-12T02:05:09.601Z,100533.53
2023-11-12T02:08:13.943Z,100534.81
2023-11-12T02:11:16.688Z,100526.94
2023-11-12T02:14:21.786Z,100535.75
2023-11-12T02:17:26.279Z,100528.72
2023-11-12T02:20:29.011Z,100532.31
2023-11-12T02:23:33.030Z,100531.50
2023-11-12T02:26:38.266Z,100527.44
2023-11-12T02:29:48.581Z,100528.25
2023-11-12T02:32:51.271Z,100524.66
2023-11-12T02:35:53.919Z,100527.44
2023-11-12T02:38:57.574Z,100525.34
2023-11-12T02:42:01.662Z,100522.91
2023-11-12T02:45:05.189Z,100533.19
2023-11-12T02:48:08.426Z,100529.50
2023-11-12T02:51:11.215Z,100523.47
2023-11-12T02:54:13.941Z,100522.53
2023-11-12T02:57:22.102Z,100528.97
2023-11-12T03:00:28.611Z,100535.38
2023-11-12T03:03:31.575Z,100523.81
2023-11-12T03:06:34.295Z,100521.75
2023-11-12T03:09:37.024Z,100522.88
2023-11-12T03:12:41.170Z,100524.28
2023-11-12T03:15:43.814Z,100529.28
2023-11-12T03:18:49.975Z,100509.69
2023-11-12T03:21:53.979Z,100519.78
2023-11-12T03:24:56.584Z,100521.19
2023-11-12T03:28:01.014Z,100516.56
2023-11-12T03:31:03.594Z,100517.06
2023-11-12T03:34:06.380Z,100518.63
2023-11-12T03:37:09.003Z,100515.53
2023-11-12T03:40:12.969Z,100505.75
2023-11-12T03:43:16.892Z,100511.72
2023-11-12T03:46:19.529Z,100513.34
2023-11-12T03:49:22.339Z,100511.06
2023-11-12T03:52:25.001Z,100514.75
2023-11-12T03:55:27.612Z,100506.13
2023-11-12T03:58:32.133Z,100504.16
2023-11-12T04:01:34.764Z,100504.63
2023-11-12T04:04:37.637Z,100513.44
2023-11-12T04:07:40.341Z,100511.13
2023-11-12T04:10:43.085Z,100512.75
2023-11-12T04:13:47.332Z,100512.06
2023-11-12T04:16:49.916Z,100504.22
2023-11-12T04:19:53.005Z,100506.66
2023-11-12T04:22:56.011Z,100506.66
2023-11-12T04:25:58.875Z,100507.47
2023-11-12T04:29:07.815Z,100516.94
2023-11-12T04:32:10.392Z,100512.41
2023-11-12T04:35:13.124Z,100513.69
2023-11-12T04:38:15.960Z,100511.38
2023-11-12T04:41:18.574Z,100512.53
2023-11-12T04:44:22.513Z,100507.00
2023-11-12T04:47:25.670Z,100511.38
2023-11-12T04:50:29.774Z,100509.75
2023-11-12T04:53:32.659Z,100514.38
2023-11-12T04:56:35.226Z,100522.22
2023-11-12T04:59:41.980Z,100523.69
2023-11-12T05:02:46.121Z,100533.00
2023-11-12T05:05:50.117Z,100528.16
2023-11-12T05:08:52.733Z,100535.19
2023-11-12T05:11:55.502Z,100528.34
2023-11-12T05:14:59.487Z,100532.75
2023-11-12T05:18:06.840Z,100523.28
2023-11-12T05:21:09.486Z,100529.16
2023-11-12T05:24:12.127Z,100526.63
2023-11-12T05:27:14.778Z,100532.50
2023-11-12T05:30:18.768Z,100539.66
2023-11-12T05:33:21.424Z,100534.44
2023-11-12T05:36:24.075Z,100536.44
2023-11-12T05:39:26.867Z,100535.97
2023-11-12T05:42:29.541Z,100534.34
2023-11-12T05:45:33.518Z,100540.09
2023-11-12T05:48:36.138Z,100541.72
2023-11-12T05:51:38.782Z,100548.06
2023-11-12T05:54:41.447Z,100534.56
2023-11-12T05:57:44.136Z,100541.72
2023-11-12T06:00:48.234Z,100541.72
2023-11-12T06:03:50.990Z,100545.28
2023-11-12T06:06:53.668Z,100549.66
2023-11-12T06:09:56.901Z,100547.69
2023-11-12T06:12:59.600Z,100550.16
2023-11-12T06:16:03.542Z,100556.97
2023-11-12T06:19:06.565Z,100554.66
2023-11-12T06:22:09.228Z,100549.94
2023-11-12T06:25:12.939Z,100557.44
2023-11-12T06:28:17.567Z,100552.38
2023-11-12T06:31:22.350Z,100557.56
2023-11-12T06:34:24.918Z,100556.44
2023-11-12T06:37:27.765Z,100553.66
2023-11-12T06:40:30.337Z,100559.53
2023-11-12T06:43:32.903Z,100560.69
2023-11-12T06:46:36.845Z,100557.31
2023-11-12T06:49:39.439Z,100559.25
2023-11-12T06:52:42.054Z,100559.25
2023-11-12T06:55:44.742Z,100553.72
2023-11-12T06:58:49.470Z,100562.03
2023-11-12T07:01:53.500Z,100560.88
2023-11-12T07:04:56.271Z,100561.56
2023-11-12T07:07:59.026Z,100566.28
2023-11-12T07:11:01.629Z,100569.41
2023-11-12T07:14:04.584Z,100567.78
2023-11-12T07:17:08.613Z,100573.66
2023-11-12T07:20:12.515Z,100569.41
2023-11-12T07:23:15.128Z,100586.50
2023-11-12T07:26:17.762Z,100588.13
2023-11-12T07:29:20.391Z,100581.91
2023-11-12T07:32:24.388Z,100583.97
2023-11-12T07:35:27.465Z,100574.69
2023-11-12T07:38:30.036Z,100585.88
2023-11-12T07:41:34.304Z,100585.19
2023-11-12T07:44:37.570Z,100591.53
2023-11-12T07:47:41.583Z,100588.66
2023-11-12T07:50:44.211Z,100589.31
2023-11-12T07:53:47.017Z,100599.94
2023-11-12T07:56:49.606Z,100602.22
2023-11-12T07:59:52.309Z,100600.16
2023-11-12T08:02:56.374Z,100609.13
2023-11-12T08:05:59.017Z,100604.53
2023-11-12T08:09:01.885Z,100608.59
2023-11-12T08:12:05.119Z,100610.69
2023-11-12T08:15:08.999Z,100606.22
2023-11-12T08:18:12.969Z,100606.84
2023-11-12T08:21:15.651Z,100609.00
2023-11-12T08:24:18.426Z,100606.84
2023-11-12T08:27:21.067Z,100604.47
2023-11-12T08:30:24.470Z,100615.00
2023-11-12T08:33:28.525Z,100605.78
2023-11-12T08:36:31.254Z,100611.09
2023-11-12T08:39:33.891Z,100613.63
2023-11-12T08:42:36.509Z,100624.94
2023-11-12T08:45:39.160Z,100633.50
2023-11-12T08:48:44.293Z,100620.31
2023-11-12T08:51:47.014Z,100621.34
2023-11-12T08:54:50.228Z,100626.06
2023-11-12T08:57:52.925Z,100632.44
2023-11-12T09:00:55.590Z,100634.88
2023-11-12T09:03:59.684Z,100632.56
2023-11-12T09:07:02.347Z,100639.75
2023-11-12T09:10:05.734Z,100638.16
2023-11-12T09:13:08.327Z,100642.66
2023-11-12T09:16:12.027Z,100641.78
2023-11-12T09:19:16.058Z,100643.75
2023-11-12T09:22:18.666Z,100644.91
2023-11-12T09:25:21.294Z,100641.19
2023-11-12T09:28:23.925Z,100644.31
2023-11-12T09:31:27.096Z,100647.00
2023-11-12T09:34:31.713Z,100648.94
2023-11-12T09:37:34.282Z,100650.09
2023-11-12T09:40:37.012Z,100654.94
2023-11-12T09:43:39.643Z,100648.97
2023-11-12T09:46:42.314Z,100644.59
2023-11-12T09:49:46.249Z,100655.94
2023-11-12T09:52:49.076Z,100652.44
2023-11-12T09:55:53.060Z,100653.75
2023-11-12T09:58:55.924Z,100653.63
2023-11-12T10:01:58.575Z,100655.34
2023-11-12T10:05:05.705Z,100660.53
2023-11-12T10:08:08.361Z,100671.38
2023-11-12T10:11:18.398Z,100664.59
2023-11-12T10:14:24.107Z,100664.59
2023-11-12T10:17:26.743Z,100671.69
2023-11-12T10:20:31.963Z,100669.25
2023-11-12T10:23:34.572Z,100672.50
2023-11-12T10:26:37.750Z,100674.13
2023-11-12T10:29:41.125Z,100663.00
2023-11-12T10:32:43.760Z,100677.47
2023-11-12T10:35:48.250Z,100679.81
2023-11-12T10:38:51.018Z,100666.28
2023-11-12T10:41:53.651Z,100676.00
2023-11-12T10:44:58.014Z,100685.50
2023-11-12T10:48:00.905Z,100679.03
2023-11-12T10:51:06.641Z,100678.84
2023-11-12T10:54:09.430Z,100679.75
2023-11-12T10:57:12.382Z,100685.50
2023-11-12T11:00:16.967Z,100690.84
2023-11-12T11:03:19.623Z,100686.84
2023-11-12T11:06:23.800Z,100696.19
2023-11-12T11:09:26.398Z,100701.84
2023-11-12T11:12:29.221Z,100701.41
2023-11-12T11:15:44.206Z,100701.25
2023-11-12T11:18:53.144Z,100713.53
2023-11-12T11:22:24.881Z,100721.84
2023-11-12T11:25:27.684Z,100722.88
2023-11-12T11:28:35.506Z,100728.19
2023-11-12T11:31:38.817Z,100734.06
2023-11-12T11:34:41.955Z,100733.25
2023-11-12T11:38:11.257Z,100736.50
2023-11-12T11:41:14.057Z,100724.47
2023-11-12T11:44:45.593Z,100725.84
2023-11-12T11:48:06.432Z,100724.06
2023-11-12T11:51:48.649Z,100735.19
2023-11-12T11:54:56.932Z,100728.84
2023-11-12T11:58:01.602Z,100727.22
2023-11-12T12:01:05.051Z,100725.06
2023-11-12T12:04:07.883Z,100724.44
2023-11-12T12:07:10.553Z,100721.47
2023-11-12T12:10:27.616Z,100710.53
2023-11-12T12:13:31.487Z,100711.88
2023-11-12T12:16:34.614Z,100711.59
2023-11-12T12:19:37.392Z,100710.66
2023-11-12T12:22:40.034Z,100714.91
2023-11-12T12:25:53.540Z,100711.31
2023-11-12T12:28:56.179Z,100712.97
2023-11-12T12:31:59.734Z,100714.59
2023-11-12T12:35:02.405Z,100709.84
2023-11-12T12:38:07.296Z,100715.91
2023-11-12T12:41:11.209Z,100714.97
2023-11-12T12:44:21.150Z,100712.41
2023-11-12T12:47:31.744Z,100702.91
2023-11-12T12:50:34.738Z,100708.44
2023-11-12T12:53:38.000Z,100705.22
2023-11-12T12:56:41.987Z,100700.34
2023-11-12T12:59:44.674Z,100696.22
2023-11-12T13:02:49.021Z,100705.00
2023-11-12T13:05:52.002Z,100705.41
2023-11-12T13:08:55.186Z,100706.59
2023-11-12T13:11:59.211Z,100703.78
2023-11-12T13:15:01.863Z,100710.38
2023-11-12T13:18:04.768Z,100705.09
2023-11-12T13:21:07.562Z,100701.66
2023-11-12T13:24:11.522Z,100697.72
2023-11-12T13:27:15.535Z,100700.50
2023-11-12T13:30:18.436Z,100700.91
2023-11-12T13:33:21.028Z,100699.44
2023-11-12T13:36:25.799Z,100696.47
2023-11-12T13:39:30.840Z,100700.25
2023-11-12T13:42:36.754Z,100696.81
2023-11-12T13:45:39.715Z,100692.69
2023-11-12T13:48:42.821Z,100695.66
2023-11-12T13:51:47.397Z,100695.66
2023-11-12T13:54:50.895Z,100696.59
2023-11-12T13:57:56.674Z,100697.09
2023-11-12T14:00:59.377Z,100692.56
2023-11-12T14:04:02.402Z,100700.25
2023-11-12T14:07:06.952Z,100700.63
2023-11-12T14:10:10.628Z,100706.38
2023-11-12T14:13:15.686Z,100711.16
2023-11-12T14:16:18.833Z,100715.63
2023-11-12T14:19:21.491Z,100719.19
2023-11-12T14:22:24.108Z,100715.25
2023-11-12T14:25:26.891Z,100712.16
2023-11-12T14:28:32.409Z,100719.84
2023-11-12T14:31:35.446Z,100726.25
2023-11-12T14:34:39.561Z,100724.34
2023-11-12T14:37:42.536Z,100729.91
2023-11-12T14:40:45.160Z,100732.47
2023-11-12T14:43:49.366Z,100730.66
2023-11-12T14:46:52.055Z,100727.53
2023-11-12T14:49:54.677Z,100734.56
2023-11-12T14:52:59.151Z,100736.38
2023-11-12T14:56:02.087Z,100728.25
2023-11-12T14:59:07.092Z,100740.97
2023-11-12T15:02:13.853Z,100737.72
2023-11-12T15:05:16.993Z,100743.06
2023-11-12T15:08:19.566Z,100737.84
2023-11-12T15:11:22.155Z,100740.47
2023-11-12T15:14:26.129Z,100761.50
2023-11-12T15:17:30.302Z,100761.00
2023-11-12T15:20:36.108Z,100764.72
2023-11-12T15:23:38.689Z,100765.22
2023-11-12T15:26:42.511Z,100774.19
2023-11-12T15:29:46.842Z,100779.56
2023-11-12T15:32:50.108Z,100789.84
2023-11-12T15:35:54.064Z,100797.94
2023-11-12T15:38:57.290Z,100778.09
2023-11-12T15:41:59.900Z,100770.00
2023-11-12T15:45:07.011Z,100776.84
2023-11-12T15:48:09.647Z,100770.16
2023-11-12T15:51:14.868Z,100769.00
2023-11-12T15:54:17.490Z,100783.34
2023-11-12T15:57:20.096Z,100780.91
2023-11-12T16:00:25.219Z,100789.53
2023-11-12T16:03:30.697Z,100786.94
2023-11-12T16:06:33.463Z,100786.00
2023-11-12T16:09:36.149Z,100781.41
2023-11-12T16:12:39.387Z,100779.13
2023-11-12T16:15:43.503Z,100780.75
2023-11-12T16:18:47.337Z,100776.03
2023-11-12T16:21:50.053Z,100782.22
2023-11-12T16:24:53.042Z,100776.56
2023-11-12T16:27:56.525Z,100770.19
2023-11-12T16:31:03.039Z,100778.81
2023-11-12T16:34:06.206Z,100764.03
2023-11-12T16:37:10.276Z,100764.34
2023-11-12T16:40:15.853Z,100764.19
2023-11-12T16:43:19.567Z,100758.03
2023-11-12T16:46:23.552Z,100750.53
2023-11-12T16:49:27.277Z,100742.72
2023-11-12T16:52:29.951Z,100756.25
2023-11-12T16:55:32.520Z,100741.25
2023-11-12T16:58:35.164Z,100733.28
2023-11-12T17:01:45.299Z,100741.91
2023-11-12T17:04:48.605Z,100749.72
2023-11-12T17:07:51.548Z,100766.31
2023-11-12T17:10:54.218Z,100754.94
2023-11-12T17:13:57.647Z,100754.44
2023-11-12T17:17:01.620Z,100759.97
2023-11-12T17:20:04.876Z,100765.06
2023-11-12T17:23:08.678Z,100780.53
2023-11-12T17:26:11.368Z,100785.38
2023-11-12T17:29:14.023Z,100801.34
2023-11-12T17:32:18.431Z,100811.25
2023-11-12T17:35:21.021Z,100829.16
2023-11-12T17:38:28.215Z,100837.13
2023-11-12T17:41:30.848Z,100844.78
2023-11-12T17:44:35.286Z,100848.34
2023-11-12T17:47:39.479Z,100830.94
2023-11-12T17:50:42.390Z,100830.28
2023-11-12T17:53:44.973Z,100838.59
2023-11-12T17:56:48.904Z,100823.44
2023-11-12T17:59:52.014Z,100835.31
2023-11-12T18:02:56.442Z,100830.13
2023-11-12T18:05:59.190Z,100838.59
2023-11-12T18:09:01.938Z,100836.66
2023-11-12T18:12:04.910Z,100818.91
2023-11-12T18:15:13.854Z,100805.25
2023-11-12T18:18:22.238Z,100808.00
2023-11-12T18:21:25.126Z,100833.56
2023-11-12T18:24:27.699Z,100841.22
2023-11-12T18:27:30.319Z,100837.66
2023-11-12T18:30:32.958Z,100832.44
2023-11-12T18:33:37.104Z,100817.97
2023-11-12T18:36:40.774Z,100817.13
2023-11-12T18:39:44.111Z,100816.19
2023-11-12T18:42:46.819Z,100813.28
2023-11-12T18:45:49.799Z,100801.72
2023-11-12T18:48:55.489Z,100773.09
2023-11-12T18:51:58.148Z,100755.81
2023-11-12T18:55:00.791Z,100765.56
2023-11-12T18:58:03.432Z,100756.94
2023-11-12T19:01:06.284Z,100753.19
2023-11-12T19:04:10.370Z,100761.16
2023-11-12T19:07:15.854Z,100761.16
2023-11-12T19:10:23.447Z,100783.78
2023-11-12T19:13:26.175Z,100787.38
2023-11-12T19:16:29.225Z,100799.28
2023-11-12T19:19:34.534Z,100803.38
2023-11-12T19:22:37.111Z,100795.22
2023-11-12T19:25:40.671Z,100784.00
2023-11-12T19:28:43.306Z,100791.34
2023-11-12T19:31:46.050Z,100787.25
2023-11-12T19:34:50.742Z,100781.22
2023-11-12T19:37:53.384Z,100786.94
2023-11-12T19:40:56.007Z,100796.84
2023-11-12T19:43:58.640Z,100797.50
2023-11-12T19:47:01.621Z,100795.38
2023-11-12T19:50:07.811Z,100784.47
2023-11-12T19:53:14.141Z,100778.63
2023-11-12T19:56:18.276Z,100785.75
2023-11-12T19:59:20.883Z,100787.38
2023-11-12T20:02:23.574Z,100796.19
2023-11-12T20:05:27.661Z,100804.47
2023-11-12T20:08:30.281Z,100804.97
2023-11-12T20:11:32.957Z,100810.50
2023-11-12T20:14:37.765Z,100788.09
2023-11-12T20:17:40.597Z,100775.53
2023-11-12T20:20:44.533Z,100797.50
2023-11-12T20:23:53.711Z,100816.88
2023-11-12T20:26:57.540Z,100816.72
2023-11-12T20:30:00.259Z,100826.78
2023-11-12T20:33:03.018Z,100827.44
2023-11-12T20:36:11.349Z,100822.22
2023-11-12T20:39:16.891Z,100796.72
2023-11-12T20:42:20.601Z,100790.50
2023-11-12T20:45:23.254Z,100787.44
2023-11-12T20:48:26.325Z,100797.34
2023-11-12T20:51:30.317Z,100791.84
2023-11-12T20:54:33.546Z,100771.66
2023-11-12T20:57:36.759Z,100763.69
2023-11-12T21:00:40.176Z,100745.47
2023-11-12T21:03:43.646Z,100745.78
2023-11-12T21:06:48.463Z,100776.19
2023-11-12T21:09:52.420Z,100779.31
2023-11-12T21:12:55.099Z,100791.97
2023-11-12T21:15:58.320Z,100787.25
2023-11-12T21:19:03.284Z,100791.97
2023-11-12T21:22:07.490Z,100799.78
2023-11-12T21:25:10.986Z,100809.22
2023-11-12T21:28:13.755Z,100815.56
2023-11-12T21:31:16.562Z,100807.28
2023-11-12T21:34:19.310Z,100792.13
2023-11-12T21:37:23.266Z,100807.44
2023-11-12T21:40:25.981Z,100823.22
2023-11-12T21:43:28.569Z,100816.88
2023-11-12T21:46:31.211Z,100811.34
2023-11-12T21:49:33.850Z,100823.53
2023-11-12T21:52:37.824Z,100819.94
2023-11-12T21:55:40.417Z,100827.25
2023-11-12T21:58:43.031Z,100856.03
2023-11-12T22:01:45.642Z,100850.50
2023-11-12T22:04:51.149Z,100852.16
2023-11-12T22:07:55.111Z,100850.50
2023-11-12T22:10:57.675Z,100853.78
2023-11-12T22:14:00.242Z,100846.63
2023-11-12T22:17:03.245Z,100834.91
2023-11-12T22:20:07.155Z,100824.97
2023-11-12T22:23:12.572Z,100811.81
2023-11-12T22:26:15.246Z,100805.31
2023-11-12T22:29:18.871Z,100809.22
2023-11-12T22:32:22.223Z,100807.59
2023-11-12T22:35:24.924Z,100808.72
2023-11-12T22:38:28.909Z,100806.63
2023-11-12T22:41:31.492Z,100786.78
2023-11-12T22:44:34.120Z,100774.91
2023-11-12T22:47:36.781Z,100756.88
2023-11-12T22:50:41.900Z,100760.75
2023-11-12T22:53:45.862Z,100754.75
2023-11-12T22:56:49.406Z,100789.03
2023-11-12T22:59:52.209Z,100804.81
2023-11-12T23:02:55.088Z,100809.03
2023-11-12T23:05:57.765Z,100784.16
2023-11-12T23:09:07.441Z,100787.41
2023-11-12T23:12:11.430Z,100792.59
2023-11-12T23:15:14.285Z,100783.84
2023-11-12T23:18:18.692Z,100775.22
2023-11-12T23:21:21.374Z,100789.53
2023-11-12T23:24:25.368Z,100787.38
2023-11-12T23:27:28.036Z,100770.81
2023-11-12T23:30:31.699Z,100776.84
2023-11-12T23:33:34.290Z,100781.38
2023-11-12T23:36:36.919Z,100757.50
2023-11-12T23:39:43.651Z,100756.03
2023-11-12T23:42:46.593Z,100740.59
2023-11-12T23:45:49.262Z,100737.34
2023-11-12T23:48:51.927Z,100747.25
2023-11-12T23:51:54.627Z,100744.50
2023-11-12T23:54:58.599Z,100740.59
2023-11-12T23:58:01.725Z,100738.97
